sensor_id;sensor_type;location;lat;lon;timestamp;temperature;humidity
22738;DHT22;11536;50.860;4.286;2023-12-28T00:01:23;11.40;99.90
22738;DHT22;11536;50.860;4.286;2023-12-28T00:03:49;11.40;99.90
22738;DHT22;11536;50.860;4.286;2023-12-28T00:06:15;11.40;99.90
22738;DHT22;11536;50.860;4.286;2023-12-28T00:08:41;11.40;99.90
22738;DHT22;11536;50.860;4.286;2023-12-28T00:11:07;11.40;99.90
22738;DHT22;11536;50.860;4.286;2023-12-28T00:13:33;11.40;99.90
22738;DHT22;11536;50.860;4.286;2023-12-28T00:15:58;11.40;99.90
22738;DHT22;11536;50.860;4.286;2023-12-28T00:18:24;11.40;99.90
22738;DHT22;11536;50.860;4.286;2023-12-28T00:20:50;11.40;99.90
22738;DHT22;11536;50.860;4.286;2023-12-28T00:23:16;11.50;99.90
22738;DHT22;11536;50.860;4.286;2023-12-28T00:25:41;11.40;99.90
22738;DHT22;11536;50.860;4.286;2023-12-28T00:28:07;11.50;99.90
22738;DHT22;11536;50.860;4.286;2023-12-28T00:30:33;11.50;99.90
22738;DHT22;11536;50.860;4.286;2023-12-28T00:32:59;11.40;99.90
22738;DHT22;11536;50.860;4.286;2023-12-28T00:35:25;11.50;99.90
22738;DHT22;11536;50.860;4.286;2023-12-28T00:37:51;11.50;99.90
22738;DHT22;11536;50.860;4.286;2023-12-28T00:40:16;11.50;99.90
22738;DHT22;11536;50.860;4.286;2023-12-28T00:42:42;11.50;99.90
22738;DHT22;11536;50.860;4.286;2023-12-28T00:45:08;11.50;99.90
22738;DHT22;11536;50.860;4.286;2023-12-28T00:47:35;11.50;99.90
22738;DHT22;11536;50.860;4.286;2023-12-28T00:50:00;11.60;99.90
22738;DHT22;11536;50.860;4.286;2023-12-28T00:52:26;11.50;99.90
22738;DHT22;11536;50.860;4.286;2023-12-28T00:54:52;11.50;99.90
22738;DHT22;11536;50.860;4.286;2023-12-28T00:57:17;11.50;99.90
22738;DHT22;11536;50.860;4.286;2023-12-28T00:59:43;11.60;99.90
22738;DHT22;11536;50.860;4.286;2023-12-28T01:02:09;11.60;99.90
22738;DHT22;11536;50.860;4.286;2023-12-28T01:04:35;11.60;99.90
22738;DHT22;11536;50.860;4.286;2023-12-28T01:07:00;11.60;99.90
22738;DHT22;11536;50.860;4.286;2023-12-28T01:09:28;11.60;99.90
22738;DHT22;11536;50.860;4.286;2023-12-28T01:11:54;11.60;99.90
22738;DHT22;11536;50.860;4.286;2023-12-28T01:14:19;11.60;99.90
22738;DHT22;11536;50.860;4.286;2023-12-28T01:16:45;11.60;99.90
22738;DHT22;11536;50.860;4.286;2023-12-28T01:19:17;11.60;99.90
22738;DHT22;11536;50.860;4.286;2023-12-28T01:21:42;11.60;99.90
22738;DHT22;11536;50.860;4.286;2023-12-28T01:24:08;11.60;99.90
22738;DHT22;11536;50.860;4.286;2023-12-28T01:26:33;11.60;99.90
22738;DHT22;11536;50.860;4.286;2023-12-28T01:29:00;11.60;99.90
22738;DHT22;11536;50.860;4.286;2023-12-28T01:31:28;11.60;99.90
22738;DHT22;11536;50.860;4.286;2023-12-28T01:33:54;11.60;99.90
22738;DHT22;11536;50.860;4.286;2023-12-28T01:36:21;11.60;99.90
22738;DHT22;11536;50.860;4.286;2023-12-28T01:38:47;11.60;99.90
22738;DHT22;11536;50.860;4.286;2023-12-28T01:41:12;11.60;99.90
22738;DHT22;11536;50.860;4.286;2023-12-28T01:43:39;11.60;99.90
22738;DHT22;11536;50.860;4.286;2023-12-28T01:46:19;11.60;99.90
22738;DHT22;11536;50.860;4.286;2023-12-28T01:48:49;11.60;99.90
22738;DHT22;11536;50.860;4.286;2023-12-28T01:51:15;11.50;99.90
22738;DHT22;11536;50.860;4.286;2023-12-28T01:53:42;11.50;99.90
22738;DHT22;11536;50.860;4.286;2023-12-28T01:56:08;11.50;99.90
22738;DHT22;11536;50.860;4.286;2023-12-28T01:58:35;11.50;99.90
22738;DHT22;11536;50.860;4.286;2023-12-28T02:01:02;11.50;99.90
22738;DHT22;11536;50.860;4.286;2023-12-28T02:03:28;11.50;99.90
22738;DHT22;11536;50.860;4.286;2023-12-28T02:05:54;11.50;99.90
22738;DHT22;11536;50.860;4.286;2023-12-28T02:08:20;11.50;99.90
22738;DHT22;11536;50.860;4.286;2023-12-28T02:10:45;11.50;99.90
22738;DHT22;11536;50.860;4.286;2023-12-28T02:13:11;11.50;99.90
22738;DHT22;11536;50.860;4.286;2023-12-28T02:15:37;11.50;99.90
22738;DHT22;11536;50.860;4.286;2023-12-28T02:18:08;11.50;99.90
22738;DHT22;11536;50.860;4.286;2023-12-28T02:20:35;11.40;99.90
22738;DHT22;11536;50.860;4.286;2023-12-28T02:23:02;11.50;99.90
22738;DHT22;11536;50.860;4.286;2023-12-28T02:25:27;11.50;99.90
22738;DHT22;11536;50.860;4.286;2023-12-28T02:27:53;11.50;99.90
22738;DHT22;11536;50.860;4.286;2023-12-28T02:30:23;11.50;99.90
22738;DHT22;11536;50.860;4.286;2023-12-28T02:35:51;11.50;99.90
22738;DHT22;11536;50.860;4.286;2023-12-28T02:38:18;11.50;99.90
22738;DHT22;11536;50.860;4.286;2023-12-28T02:40:45;11.50;99.90
22738;DHT22;11536;50.860;4.286;2023-12-28T02:43:12;11.50;99.90
22738;DHT22;11536;50.860;4.286;2023-12-28T02:45:38;11.50;99.90
22738;DHT22;11536;50.860;4.286;2023-12-28T02:48:05;11.50;99.90
22738;DHT22;11536;50.860;4.286;2023-12-28T02:50:31;11.50;99.90
22738;DHT22;11536;50.860;4.286;2023-12-28T02:52:58;11.50;99.90
22738;DHT22;11536;50.860;4.286;2023-12-28T02:55:24;11.60;99.90
22738;DHT22;11536;50.860;4.286;2023-12-28T02:57:51;11.50;99.90
22738;DHT22;11536;50.860;4.286;2023-12-28T03:00:17;11.50;99.90
22738;DHT22;11536;50.860;4.286;2023-12-28T03:02:43;11.60;99.90
22738;DHT22;11536;50.860;4.286;2023-12-28T03:05:09;11.50;99.90
22738;DHT22;11536;50.860;4.286;2023-12-28T03:07:35;11.60;99.90
22738;DHT22;11536;50.860;4.286;2023-12-28T03:10:02;11.60;99.90
22738;DHT22;11536;50.860;4.286;2023-12-28T03:12:29;11.60;99.90
22738;DHT22;11536;50.860;4.286;2023-12-28T03:14:54;11.60;99.90
22738;DHT22;11536;50.860;4.286;2023-12-28T03:17:20;11.60;99.90
22738;DHT22;11536;50.860;4.286;2023-12-28T03:19:46;11.50;99.90
22738;DHT22;11536;50.860;4.286;2023-12-28T03:22:11;11.60;99.90
22738;DHT22;11536;50.860;4.286;2023-12-28T03:24:38;11.60;99.90
22738;DHT22;11536;50.860;4.286;2023-12-28T03:27:07;11.60;99.90
22738;DHT22;11536;50.860;4.286;2023-12-28T03:29:33;11.60;99.90
22738;DHT22;11536;50.860;4.286;2023-12-28T03:31:59;11.60;99.90
22738;DHT22;11536;50.860;4.286;2023-12-28T03:34:26;11.60;99.90
22738;DHT22;11536;50.860;4.286;2023-12-28T03:36:55;11.60;99.90
22738;DHT22;11536;50.860;4.286;2023-12-28T03:39:22;11.60;99.90
22738;DHT22;11536;50.860;4.286;2023-12-28T03:41:48;11.60;99.90
22738;DHT22;11536;50.860;4.286;2023-12-28T03:44:14;11.60;99.90
22738;DHT22;11536;50.860;4.286;2023-12-28T03:46:40;11.60;99.90
22738;DHT22;11536;50.860;4.286;2023-12-28T03:49:05;11.60;99.90
22738;DHT22;11536;50.860;4.286;2023-12-28T03:51:31;11.60;99.90
22738;DHT22;11536;50.860;4.286;2023-12-28T03:53:57;11.60;99.90
22738;DHT22;11536;50.860;4.286;2023-12-28T03:56:24;11.60;99.90
22738;DHT22;11536;50.860;4.286;2023-12-28T03:58:50;11.60;99.90
22738;DHT22;11536;50.860;4.286;2023-12-28T04:01:19;11.60;99.90
22738;DHT22;11536;50.860;4.286;2023-12-28T04:03:45;11.60;99.90
22738;DHT22;11536;50.860;4.286;2023-12-28T04:06:11;11.60;99.90
22738;DHT22;11536;50.860;4.286;2023-12-28T04:08:38;11.60;99.90
22738;DHT22;11536;50.860;4.286;2023-12-28T04:11:04;11.50;99.90
22738;DHT22;11536;50.860;4.286;2023-12-28T04:13:29;11.60;99.90
22738;DHT22;11536;50.860;4.286;2023-12-28T04:15:55;11.60;99.90
22738;DHT22;11536;50.860;4.286;2023-12-28T04:18:21;11.60;99.90
22738;DHT22;11536;50.860;4.286;2023-12-28T04:20:47;11.60;99.90
22738;DHT22;11536;50.860;4.286;2023-12-28T04:23:13;11.60;99.90
22738;DHT22;11536;50.860;4.286;2023-12-28T04:25:39;11.60;99.90
22738;DHT22;11536;50.860;4.286;2023-12-28T04:28:06;11.60;99.90
22738;DHT22;11536;50.860;4.286;2023-12-28T04:30:32;11.60;99.90
22738;DHT22;11536;50.860;4.286;2023-12-28T04:32:57;11.60;99.90
22738;DHT22;11536;50.860;4.286;2023-12-28T04:35:23;11.60;99.90
22738;DHT22;11536;50.860;4.286;2023-12-28T04:37:49;11.60;99.90
22738;DHT22;11536;50.860;4.286;2023-12-28T04:40:14;11.60;99.90
22738;DHT22;11536;50.860;4.286;2023-12-28T04:42:41;11.60;99.90
22738;DHT22;11536;50.860;4.286;2023-12-28T04:45:07;11.60;99.90
22738;DHT22;11536;50.860;4.286;2023-12-28T04:47:32;11.60;99.90
22738;DHT22;11536;50.860;4.286;2023-12-28T04:49:58;11.50;99.90
22738;DHT22;11536;50.860;4.286;2023-12-28T04:52:24;11.50;99.90
22738;DHT22;11536;50.860;4.286;2023-12-28T04:54:49;11.50;99.90
22738;DHT22;11536;50.860;4.286;2023-12-28T04:57:15;11.50;99.90
22738;DHT22;11536;50.860;4.286;2023-12-28T04:59:41;11.50;99.90
22738;DHT22;11536;50.860;4.286;2023-12-28T05:02:07;11.50;99.90
22738;DHT22;11536;50.860;4.286;2023-12-28T05:04:33;11.50;99.90
22738;DHT22;11536;50.860;4.286;2023-12-28T05:06:59;11.50;99.90
22738;DHT22;11536;50.860;4.286;2023-12-28T05:09:24;11.50;99.90
22738;DHT22;11536;50.860;4.286;2023-12-28T05:11:50;11.40;99.90
22738;DHT22;11536;50.860;4.286;2023-12-28T05:14:15;11.40;99.90
22738;DHT22;11536;50.860;4.286;2023-12-28T05:16:41;11.40;99.90
22738;DHT22;11536;50.860;4.286;2023-12-28T05:19:07;11.40;99.90
22738;DHT22;11536;50.860;4.286;2023-12-28T05:21:34;11.40;99.90
22738;DHT22;11536;50.860;4.286;2023-12-28T05:23:59;11.40;99.90
22738;DHT22;11536;50.860;4.286;2023-12-28T05:26:25;11.40;99.90
22738;DHT22;11536;50.860;4.286;2023-12-28T05:28:51;11.40;99.90
22738;DHT22;11536;50.860;4.286;2023-12-28T05:31:17;11.40;99.90
22738;DHT22;11536;50.860;4.286;2023-12-28T05:33:42;11.40;99.90
22738;DHT22;11536;50.860;4.286;2023-12-28T05:36:08;11.40;99.90
22738;DHT22;11536;50.860;4.286;2023-12-28T05:38:34;11.40;99.90
22738;DHT22;11536;50.860;4.286;2023-12-28T05:41:00;11.40;99.90
22738;DHT22;11536;50.860;4.286;2023-12-28T05:43:25;11.40;99.90
22738;DHT22;11536;50.860;4.286;2023-12-28T05:45:51;11.40;99.90
22738;DHT22;11536;50.860;4.286;2023-12-28T05:48:16;11.50;99.90
22738;DHT22;11536;50.860;4.286;2023-12-28T05:50:42;11.40;99.90
22738;DHT22;11536;50.860;4.286;2023-12-28T05:53:08;11.40;99.90
22738;DHT22;11536;50.860;4.286;2023-12-28T05:55:40;11.40;99.90
22738;DHT22;11536;50.860;4.286;2023-12-28T05:58:05;11.40;99.90
22738;DHT22;11536;50.860;4.286;2023-12-28T06:00:31;11.40;99.90
22738;DHT22;11536;50.860;4.286;2023-12-28T06:02:57;11.40;99.90
22738;DHT22;11536;50.860;4.286;2023-12-28T06:05:22;11.40;99.90
22738;DHT22;11536;50.860;4.286;2023-12-28T06:07:48;11.40;99.90
22738;DHT22;11536;50.860;4.286;2023-12-28T06:10:13;11.30;99.90
22738;DHT22;11536;50.860;4.286;2023-12-28T06:12:39;11.30;99.90
22738;DHT22;11536;50.860;4.286;2023-12-28T06:15:05;11.40;99.90
22738;DHT22;11536;50.860;4.286;2023-12-28T06:17:31;11.30;99.90
22738;DHT22;11536;50.860;4.286;2023-12-28T06:19:56;11.40;99.90
22738;DHT22;11536;50.860;4.286;2023-12-28T06:22:22;11.40;99.90
22738;DHT22;11536;50.860;4.286;2023-12-28T06:24:53;11.40;99.90
22738;DHT22;11536;50.860;4.286;2023-12-28T06:27:19;11.30;99.90
22738;DHT22;11536;50.860;4.286;2023-12-28T06:29:44;11.30;99.90
22738;DHT22;11536;50.860;4.286;2023-12-28T06:32:10;11.30;99.90
22738;DHT22;11536;50.860;4.286;2023-12-28T06:34:35;11.30;99.90
22738;DHT22;11536;50.860;4.286;2023-12-28T06:37:01;11.30;99.90
22738;DHT22;11536;50.860;4.286;2023-12-28T06:39:27;11.30;99.90
22738;DHT22;11536;50.860;4.286;2023-12-28T06:41:52;11.20;99.90
22738;DHT22;11536;50.860;4.286;2023-12-28T06:44:18;11.30;99.90
22738;DHT22;11536;50.860;4.286;2023-12-28T06:46:44;11.20;99.90
22738;DHT22;11536;50.860;4.286;2023-12-28T06:49:09;11.30;99.90
22738;DHT22;11536;50.860;4.286;2023-12-28T06:51:35;11.20;99.90
22738;DHT22;11536;50.860;4.286;2023-12-28T06:54:00;11.20;99.90
22738;DHT22;11536;50.860;4.286;2023-12-28T06:56:26;11.10;99.90
22738;DHT22;11536;50.860;4.286;2023-12-28T06:58:52;11.10;99.90
22738;DHT22;11536;50.860;4.286;2023-12-28T07:01:18;11.10;99.90
22738;DHT22;11536;50.860;4.286;2023-12-28T07:03:45;11.10;99.90
22738;DHT22;11536;50.860;4.286;2023-12-28T07:06:14;11.10;99.90
22738;DHT22;11536;50.860;4.286;2023-12-28T07:08:40;11.10;99.90
22738;DHT22;11536;50.860;4.286;2023-12-28T07:11:06;11.10;99.90
22738;DHT22;11536;50.860;4.286;2023-12-28T07:13:32;11.00;99.90
22738;DHT22;11536;50.860;4.286;2023-12-28T07:15:57;11.10;99.90
22738;DHT22;11536;50.860;4.286;2023-12-28T07:18:23;11.00;99.90
22738;DHT22;11536;50.860;4.286;2023-12-28T07:20:49;11.00;99.90
22738;DHT22;11536;50.860;4.286;2023-12-28T07:23:14;11.00;99.90
22738;DHT22;11536;50.860;4.286;2023-12-28T07:25:40;11.00;99.90
22738;DHT22;11536;50.860;4.286;2023-12-28T07:28:06;11.00;99.90
22738;DHT22;11536;50.860;4.286;2023-12-28T07:30:32;11.00;99.90
22738;DHT22;11536;50.860;4.286;2023-12-28T07:32:57;11.00;99.90
22738;DHT22;11536;50.860;4.286;2023-12-28T07:35:23;11.00;99.90
22738;DHT22;11536;50.860;4.286;2023-12-28T07:37:49;11.00;99.90
22738;DHT22;11536;50.860;4.286;2023-12-28T07:40:15;10.90;99.90
22738;DHT22;11536;50.860;4.286;2023-12-28T07:42:41;11.00;99.90
22738;DHT22;11536;50.860;4.286;2023-12-28T07:45:06;11.00;99.90
22738;DHT22;11536;50.860;4.286;2023-12-28T07:47:32;11.00;99.90
22738;DHT22;11536;50.860;4.286;2023-12-28T07:49:59;10.90;99.90
22738;DHT22;11536;50.860;4.286;2023-12-28T07:52:25;11.00;99.90
22738;DHT22;11536;50.860;4.286;2023-12-28T07:54:50;11.00;99.90
22738;DHT22;11536;50.860;4.286;2023-12-28T07:57:16;10.90;99.90
22738;DHT22;11536;50.860;4.286;2023-12-28T07:59:41;11.00;99.90
22738;DHT22;11536;50.860;4.286;2023-12-28T08:02:08;10.90;99.90
22738;DHT22;11536;50.860;4.286;2023-12-28T08:04:33;10.90;99.90
22738;DHT22;11536;50.860;4.286;2023-12-28T08:06:59;10.90;99.90
22738;DHT22;11536;50.860;4.286;2023-12-28T08:09:25;10.90;99.90
22738;DHT22;11536;50.860;4.286;2023-12-28T08:11:50;10.90;99.90
22738;DHT22;11536;50.860;4.286;2023-12-28T08:14:16;10.90;99.90
22738;DHT22;11536;50.860;4.286;2023-12-28T08:16:42;10.90;99.90
22738;DHT22;11536;50.860;4.286;2023-12-28T08:19:08;10.90;99.90
22738;DHT22;11536;50.860;4.286;2023-12-28T08:21:33;11.00;99.90
22738;DHT22;11536;50.860;4.286;2023-12-28T08:23:59;11.00;99.90
22738;DHT22;11536;50.860;4.286;2023-12-28T08:26:24;11.00;99.90
22738;DHT22;11536;50.860;4.286;2023-12-28T08:28:50;11.00;99.90
22738;DHT22;11536;50.860;4.286;2023-12-28T08:31:16;11.00;99.90
22738;DHT22;11536;50.860;4.286;2023-12-28T08:33:41;11.00;99.90
22738;DHT22;11536;50.860;4.286;2023-12-28T08:36:07;11.10;99.90
22738;DHT22;11536;50.860;4.286;2023-12-28T08:38:33;11.10;99.90
22738;DHT22;11536;50.860;4.286;2023-12-28T08:40:59;11.10;99.90
22738;DHT22;11536;50.860;4.286;2023-12-28T08:43:25;11.10;99.90
22738;DHT22;11536;50.860;4.286;2023-12-28T08:45:50;11.10;99.90
22738;DHT22;11536;50.860;4.286;2023-12-28T08:48:16;11.20;99.90
22738;DHT22;11536;50.860;4.286;2023-12-28T08:50:42;11.20;99.90
22738;DHT22;11536;50.860;4.286;2023-12-28T08:53:07;11.20;99.90
22738;DHT22;11536;50.860;4.286;2023-12-28T08:55:33;11.20;99.90
22738;DHT22;11536;50.860;4.286;2023-12-28T08:58:01;11.30;99.90
22738;DHT22;11536;50.860;4.286;2023-12-28T09:00:27;11.20;99.90
22738;DHT22;11536;50.860;4.286;2023-12-28T09:02:53;11.30;99.90
22738;DHT22;11536;50.860;4.286;2023-12-28T09:05:19;11.20;99.90
22738;DHT22;11536;50.860;4.286;2023-12-28T09:07:44;11.30;99.90
22738;DHT22;11536;50.860;4.286;2023-12-28T09:10:13;11.30;99.90
22738;DHT22;11536;50.860;4.286;2023-12-28T09:12:40;11.30;99.90
22738;DHT22;11536;50.860;4.286;2023-12-28T09:15:07;11.30;99.90
22738;DHT22;11536;50.860;4.286;2023-12-28T09:17:33;11.30;99.90
22738;DHT22;11536;50.860;4.286;2023-12-28T09:19:59;11.30;99.90
22738;DHT22;11536;50.860;4.286;2023-12-28T09:22:26;11.30;99.90
22738;DHT22;11536;50.860;4.286;2023-12-28T09:24:52;11.30;99.90
22738;DHT22;11536;50.860;4.286;2023-12-28T09:27:18;11.30;99.90
22738;DHT22;11536;50.860;4.286;2023-12-28T09:29:43;11.30;99.90
22738;DHT22;11536;50.860;4.286;2023-12-28T09:32:09;11.40;99.90
22738;DHT22;11536;50.860;4.286;2023-12-28T09:34:35;11.30;99.90
22738;DHT22;11536;50.860;4.286;2023-12-28T09:37:00;11.40;99.90
22738;DHT22;11536;50.860;4.286;2023-12-28T09:39:26;11.40;99.90
22738;DHT22;11536;50.860;4.286;2023-12-28T09:42:04;11.40;99.90
22738;DHT22;11536;50.860;4.286;2023-12-28T09:44:31;11.40;99.90
22738;DHT22;11536;50.860;4.286;2023-12-28T09:46:57;11.50;99.90
22738;DHT22;11536;50.860;4.286;2023-12-28T09:49:23;11.40;99.90
22738;DHT22;11536;50.860;4.286;2023-12-28T09:51:52;11.50;99.90
22738;DHT22;11536;50.860;4.286;2023-12-28T09:54:18;11.50;99.90
22738;DHT22;11536;50.860;4.286;2023-12-28T09:56:45;11.50;99.90
22738;DHT22;11536;50.860;4.286;2023-12-28T09:59:11;11.50;99.90
22738;DHT22;11536;50.860;4.286;2023-12-28T10:01:37;11.50;99.90
22738;DHT22;11536;50.860;4.286;2023-12-28T10:04:03;11.50;99.90
22738;DHT22;11536;50.860;4.286;2023-12-28T10:06:29;11.60;99.90
22738;DHT22;11536;50.860;4.286;2023-12-28T10:08:55;11.60;99.90
22738;DHT22;11536;50.860;4.286;2023-12-28T10:11:21;11.60;99.90
22738;DHT22;11536;50.860;4.286;2023-12-28T10:13:50;11.60;99.90
22738;DHT22;11536;50.860;4.286;2023-12-28T10:16:16;11.60;99.90
22738;DHT22;11536;50.860;4.286;2023-12-28T10:18:42;11.60;99.90
22738;DHT22;11536;50.860;4.286;2023-12-28T10:21:09;11.60;99.90
22738;DHT22;11536;50.860;4.286;2023-12-28T10:23:35;11.70;99.90
22738;DHT22;11536;50.860;4.286;2023-12-28T10:26:02;11.70;99.90
22738;DHT22;11536;50.860;4.286;2023-12-28T10:28:31;11.70;99.90
22738;DHT22;11536;50.860;4.286;2023-12-28T10:30:58;11.70;99.90
22738;DHT22;11536;50.860;4.286;2023-12-28T10:33:24;11.70;99.90
22738;DHT22;11536;50.860;4.286;2023-12-28T10:35:51;11.70;99.90
22738;DHT22;11536;50.860;4.286;2023-12-28T10:38:18;11.80;99.90
22738;DHT22;11536;50.860;4.286;2023-12-28T10:40:45;11.80;99.90
22738;DHT22;11536;50.860;4.286;2023-12-28T10:43:14;11.80;99.90
22738;DHT22;11536;50.860;4.286;2023-12-28T10:45:41;11.80;99.90
22738;DHT22;11536;50.860;4.286;2023-12-28T10:48:10;11.80;99.90
22738;DHT22;11536;50.860;4.286;2023-12-28T10:50:46;11.80;99.90
22738;DHT22;11536;50.860;4.286;2023-12-28T11:01:37;11.90;99.90
22738;DHT22;11536;50.860;4.286;2023-12-28T11:04:19;12.00;99.90
22738;DHT22;11536;50.860;4.286;2023-12-28T11:06:46;12.00;99.90
22738;DHT22;11536;50.860;4.286;2023-12-28T11:09:13;12.00;99.90
22738;DHT22;11536;50.860;4.286;2023-12-28T11:11:43;12.00;99.90
22738;DHT22;11536;50.860;4.286;2023-12-28T11:14:09;12.10;99.90
22738;DHT22;11536;50.860;4.286;2023-12-28T11:16:35;12.10;99.90
22738;DHT22;11536;50.860;4.286;2023-12-28T11:19:04;12.10;99.90
22738;DHT22;11536;50.860;4.286;2023-12-28T11:21:30;12.10;99.90
22738;DHT22;11536;50.860;4.286;2023-12-28T11:23:56;12.10;99.90
22738;DHT22;11536;50.860;4.286;2023-12-28T11:26:22;12.10;99.90
22738;DHT22;11536;50.860;4.286;2023-12-28T11:28:49;12.10;99.90
22738;DHT22;11536;50.860;4.286;2023-12-28T11:31:15;12.10;99.90
22738;DHT22;11536;50.860;4.286;2023-12-28T11:33:45;12.10;99.90
22738;DHT22;11536;50.860;4.286;2023-12-28T11:36:12;12.10;99.90
22738;DHT22;11536;50.860;4.286;2023-12-28T11:38:43;12.10;99.90
22738;DHT22;11536;50.860;4.286;2023-12-28T11:41:09;12.10;99.90
22738;DHT22;11536;50.860;4.286;2023-12-28T11:43:35;12.20;99.90
22738;DHT22;11536;50.860;4.286;2023-12-28T11:46:01;12.20;99.90
22738;DHT22;11536;50.860;4.286;2023-12-28T11:48:30;12.20;99.90
22738;DHT22;11536;50.860;4.286;2023-12-28T11:50:58;12.20;99.90
22738;DHT22;11536;50.860;4.286;2023-12-28T11:53:24;12.30;99.90
22738;DHT22;11536;50.860;4.286;2023-12-28T11:55:51;12.40;99.90
22738;DHT22;11536;50.860;4.286;2023-12-28T11:58:17;12.30;99.90
22738;DHT22;11536;50.860;4.286;2023-12-28T12:00:43;12.40;99.90
22738;DHT22;11536;50.860;4.286;2023-12-28T12:03:13;12.40;99.90
22738;DHT22;11536;50.860;4.286;2023-12-28T12:05:39;12.40;99.90
22738;DHT22;11536;50.860;4.286;2023-12-28T12:08:10;12.40;99.90
22738;DHT22;11536;50.860;4.286;2023-12-28T12:10:40;12.40;99.90
22738;DHT22;11536;50.860;4.286;2023-12-28T12:13:07;12.40;99.90
22738;DHT22;11536;50.860;4.286;2023-12-28T12:15:33;12.50;99.90
22738;DHT22;11536;50.860;4.286;2023-12-28T12:17:59;12.50;99.90
22738;DHT22;11536;50.860;4.286;2023-12-28T12:20:24;12.50;99.90
22738;DHT22;11536;50.860;4.286;2023-12-28T12:22:51;12.50;99.90
22738;DHT22;11536;50.860;4.286;2023-12-28T12:25:17;12.60;99.90
22738;DHT22;11536;50.860;4.286;2023-12-28T12:27:45;12.60;99.90
22738;DHT22;11536;50.860;4.286;2023-12-28T12:30:11;12.60;99.90
22738;DHT22;11536;50.860;4.286;2023-12-28T12:32:40;12.60;99.90
22738;DHT22;11536;50.860;4.286;2023-12-28T12:35:12;12.60;99.90
22738;DHT22;11536;50.860;4.286;2023-12-28T12:37:40;12.60;99.90
22738;DHT22;11536;50.860;4.286;2023-12-28T12:40:06;12.60;99.90
22738;DHT22;11536;50.860;4.286;2023-12-28T12:42:33;12.60;99.90
22738;DHT22;11536;50.860;4.286;2023-12-28T12:44:58;12.60;99.90
22738;DHT22;11536;50.860;4.286;2023-12-28T12:47:24;12.60;99.90
22738;DHT22;11536;50.860;4.286;2023-12-28T12:49:55;12.60;99.90
22738;DHT22;11536;50.860;4.286;2023-12-28T12:52:20;12.60;99.90
22738;DHT22;11536;50.860;4.286;2023-12-28T12:54:56;12.60;99.90
22738;DHT22;11536;50.860;4.286;2023-12-28T12:57:24;12.60;99.90
22738;DHT22;11536;50.860;4.286;2023-12-28T12:59:51;12.60;99.90
22738;DHT22;11536;50.860;4.286;2023-12-28T13:02:30;12.50;99.90
22738;DHT22;11536;50.860;4.286;2023-12-28T13:04:57;12.50;99.90
22738;DHT22;11536;50.860;4.286;2023-12-28T13:07:22;12.50;99.90
22738;DHT22;11536;50.860;4.286;2023-12-28T13:09:49;12.50;99.90
22738;DHT22;11536;50.860;4.286;2023-12-28T13:12:15;12.50;99.90
22738;DHT22;11536;50.860;4.286;2023-12-28T13:14:40;12.50;99.90
22738;DHT22;11536;50.860;4.286;2023-12-28T13:17:06;12.40;99.90
22738;DHT22;11536;50.860;4.286;2023-12-28T13:19:32;12.50;99.90
22738;DHT22;11536;50.860;4.286;2023-12-28T13:21:57;12.50;99.90
22738;DHT22;11536;50.860;4.286;2023-12-28T13:24:23;12.50;99.90
22738;DHT22;11536;50.860;4.286;2023-12-28T13:26:48;12.50;99.90
22738;DHT22;11536;50.860;4.286;2023-12-28T13:29:14;12.50;99.90
22738;DHT22;11536;50.860;4.286;2023-12-28T13:31:40;12.50;99.90
22738;DHT22;11536;50.860;4.286;2023-12-28T13:34:06;12.50;99.90
22738;DHT22;11536;50.860;4.286;2023-12-28T13:36:32;12.50;99.90
22738;DHT22;11536;50.860;4.286;2023-12-28T13:38:58;12.40;99.90
22738;DHT22;11536;50.860;4.286;2023-12-28T13:41:25;12.40;99.90
22738;DHT22;11536;50.860;4.286;2023-12-28T13:43:52;12.50;99.90
22738;DHT22;11536;50.860;4.286;2023-12-28T13:46:24;12.40;99.90
22738;DHT22;11536;50.860;4.286;2023-12-28T13:48:49;12.50;99.90
22738;DHT22;11536;50.860;4.286;2023-12-28T13:51:15;12.40;99.90
22738;DHT22;11536;50.860;4.286;2023-12-28T13:53:41;12.50;99.90
22738;DHT22;11536;50.860;4.286;2023-12-28T13:56:07;12.40;99.90
22738;DHT22;11536;50.860;4.286;2023-12-28T13:58:34;12.40;99.90
22738;DHT22;11536;50.860;4.286;2023-12-28T14:00:59;12.40;99.90
22738;DHT22;11536;50.860;4.286;2023-12-28T14:03:25;12.40;99.90
22738;DHT22;11536;50.860;4.286;2023-12-28T14:05:51;12.40;99.90
22738;DHT22;11536;50.860;4.286;2023-12-28T14:08:16;12.40;99.90
22738;DHT22;11536;50.860;4.286;2023-12-28T14:10:42;12.40;99.90
22738;DHT22;11536;50.860;4.286;2023-12-28T14:13:07;12.40;99.90
22738;DHT22;11536;50.860;4.286;2023-12-28T14:15:33;12.40;99.90
22738;DHT22;11536;50.860;4.286;2023-12-28T14:17:59;12.40;99.90
22738;DHT22;11536;50.860;4.286;2023-12-28T14:20:24;12.40;99.90
22738;DHT22;11536;50.860;4.286;2023-12-28T14:22:50;12.30;99.90
22738;DHT22;11536;50.860;4.286;2023-12-28T14:25:16;12.40;99.90
22738;DHT22;11536;50.860;4.286;2023-12-28T14:27:42;12.40;99.90
22738;DHT22;11536;50.860;4.286;2023-12-28T14:30:09;12.40;99.90
22738;DHT22;11536;50.860;4.286;2023-12-28T14:32:36;12.40;99.90
22738;DHT22;11536;50.860;4.286;2023-12-28T14:35:01;12.40;99.90
22738;DHT22;11536;50.860;4.286;2023-12-28T14:37:27;12.40;99.90
22738;DHT22;11536;50.860;4.286;2023-12-28T14:39:53;12.40;99.90
22738;DHT22;11536;50.860;4.286;2023-12-28T14:42:19;12.30;99.90
22738;DHT22;11536;50.860;4.286;2023-12-28T14:44:45;12.30;99.90
22738;DHT22;11536;50.860;4.286;2023-12-28T14:47:10;12.30;99.90
22738;DHT22;11536;50.860;4.286;2023-12-28T14:49:36;12.40;99.90
22738;DHT22;11536;50.860;4.286;2023-12-28T14:52:02;12.40;99.90
22738;DHT22;11536;50.860;4.286;2023-12-28T14:54:27;12.30;99.90
22738;DHT22;11536;50.860;4.286;2023-12-28T14:56:53;12.30;99.90
22738;DHT22;11536;50.860;4.286;2023-12-28T14:59:19;12.30;99.90
22738;DHT22;11536;50.860;4.286;2023-12-28T15:01:45;12.30;99.90
22738;DHT22;11536;50.860;4.286;2023-12-28T15:04:11;12.30;99.90
22738;DHT22;11536;50.860;4.286;2023-12-28T15:06:37;12.30;99.90
22738;DHT22;11536;50.860;4.286;2023-12-28T15:09:02;12.20;99.90
22738;DHT22;11536;50.860;4.286;2023-12-28T15:11:28;12.20;99.90
22738;DHT22;11536;50.860;4.286;2023-12-28T15:13:54;12.20;99.90
22738;DHT22;11536;50.860;4.286;2023-12-28T15:16:20;12.20;99.90
22738;DHT22;11536;50.860;4.286;2023-12-28T15:18:46;12.20;99.90
22738;DHT22;11536;50.860;4.286;2023-12-28T15:21:12;12.20;99.90
22738;DHT22;11536;50.860;4.286;2023-12-28T15:23:38;12.20;99.90
22738;DHT22;11536;50.860;4.286;2023-12-28T15:26:04;12.10;99.90
22738;DHT22;11536;50.860;4.286;2023-12-28T15:28:32;12.10;99.90
22738;DHT22;11536;50.860;4.286;2023-12-28T15:30:57;12.10;99.90
22738;DHT22;11536;50.860;4.286;2023-12-28T15:33:23;12.10;99.90
22738;DHT22;11536;50.860;4.286;2023-12-28T15:35:49;12.10;99.90